Time;durP1;ratioP1;P1;durP2;ratioP2;P2;SDS_P1;SDS_P2;PMS_P1;PMS_P2;Temp;Humidity;BMP_temperature;BMP_pressure;BME280_temperature;BME280_humidity;BME280_pressure;Samples;Min_cycle;Max_cycle;Signal;HPM_P1;HPM_P2
2022/08/06 00:02:37;;;;;;;9.10;7.20;;;;;;;25.19;52.31;100125.27;106314;1268;25458;-70
2022/08/06 00:05:05;;;;;;;8.40;7.10;;;;;;;25.17;52.28;100126.13;106106;1275;23100;-72
2022/08/06 00:07:33;;;;;;;10.00;7.10;;;;;;;25.17;52.45;100132.98;106004;1275;22569;-76
2022/08/06 00:10:16;;;;;;;7.80;6.90;;;;;;;25.14;52.45;100139.89;106080;1274;24212;-71
2022/08/06 00:12:43;;;;;;;7.80;6.70;;;;;;;25.09;52.31;100141.69;106087;1274;26472;-72
2022/08/06 00:15:15;;;;;;;7.10;6.40;;;;;;;25.02;52.68;100138.25;106064;1274;25213;-71
2022/08/06 00:18:02;;;;;;;13.40;7.00;;;;;;;24.98;52.89;100134.75;106044;1274;24329;-72
2022/08/06 00:20:30;;;;;;;9.90;6.60;;;;;;;24.93;52.92;100134.02;106191;1274;25386;-70
2022/08/06 00:22:59;;;;;;;8.60;7.20;;;;;;;24.87;53.18;100131.02;106067;1271;22530;-72
2022/08/06 00:25:27;;;;;;;11.20;7.20;;;;;;;24.85;53.34;100127.40;106370;1268;26500;-71
2022/08/06 00:28:02;;;;;;;7.60;6.90;;;;;;;24.85;53.52;100131.31;106401;1268;24328;-71
2022/08/06 00:30:35;;;;;;;7.80;6.90;;;;;;;24.82;53.44;100158.55;106358;1271;22684;-70
2022/08/06 00:33:03;;;;;;;14.00;7.60;;;;;;;24.75;53.86;100148.98;106421;1271;25462;-73
2022/08/06 00:35:30;;;;;;;8.90;8.00;;;;;;;24.68;53.89;100127.55;106265;1268;22522;-71
2022/08/06 00:37:58;;;;;;;11.30;8.20;;;;;;;24.63;54.12;100127.71;106295;1271;25444;-70
2022/08/06 00:40:30;;;;;;;9.50;8.40;;;;;;;24.59;54.37;100133.06;106325;1268;26477;-69
2022/08/06 00:42:58;;;;;;;12.70;8.00;;;;;;;24.56;54.63;100169.61;106206;1271;25333;-71
2022/08/06 00:45:33;;;;;;;9.40;8.50;;;;;;;24.44;55.16;100177.88;106173;1271;25380;-71
2022/08/06 00:48:13;;;;;;;10.90;9.60;;;;;;;24.27;55.77;100170.20;106438;1271;22588;-70
2022/08/06 00:51:00;;;;;;;9.80;8.90;;;;;;;24.11;55.85;100150.77;106468;1271;22858;-71
2022/08/06 00:53:28;;;;;;;10.50;9.50;;;;;;;24.07;56.15;100153.02;106378;1271;22547;-72
2022/08/06 00:56:01;;;;;;;11.30;9.60;;;;;;;24.03;56.51;100161.02;106544;1271;23239;-71
2022/08/06 00:58:37;;;;;;;11.70;9.00;;;;;;;23.97;56.71;100159.48;106505;1268;25235;-69
2022/08/06 01:01:08;;;;;;;10.20;8.90;;;;;;;23.88;56.84;100147.83;106445;1271;24460;-68
2022/08/06 01:03:46;;;;;;;12.00;8.80;;;;;;;23.86;57.04;100151.05;106301;1271;25220;-71
2022/08/06 01:06:21;;;;;;;12.50;8.60;;;;;;;23.83;57.19;100155.39;106415;1269;24104;-68
2022/08/06 01:09:10;;;;;;;9.50;8.50;;;;;;;23.77;57.54;100160.14;106222;1271;22854;-72
2022/08/06 01:11:38;;;;;;;12.80;9.30;;;;;;;23.66;57.39;100156.90;106271;1271;22548;-68
2022/08/06 01:14:06;;;;;;;14.10;9.20;;;;;;;23.55;57.90;100157.86;106153;1271;22685;-68
2022/08/06 01:16:58;;;;;;;11.90;9.00;;;;;;;23.46;58.21;100153.77;106246;1268;25514;-71
2022/08/06 01:19:28;;;;;;;11.80;9.30;;;;;;;23.43;58.34;100154.48;106378;1270;24363;-73
2022/08/06 01:22:36;;;;;;;11.40;9.20;;;;;;;23.39;58.51;100148.27;106427;1269;24252;-73
2022/08/06 01:25:16;;;;;;;11.30;10.20;;;;;;;23.39;58.65;100137.50;106444;1268;25296;-72
2022/08/06 01:27:56;;;;;;;10.00;9.00;;;;;;;23.42;58.78;100141.83;106651;1268;24259;-72
2022/08/06 01:30:31;;;;;;;10.70;9.70;;;;;;;23.44;58.82;100137.14;106850;1271;25235;-71
2022/08/06 01:33:07;;;;;;;11.10;9.70;;;;;;;23.45;59.04;100138.02;106569;1274;25361;-70
2022/08/06 01:35:47;;;;;;;10.50;9.40;;;;;;;23.44;58.96;100127.84;106081;1274;24546;-75
2022/08/06 01:38:33;;;;;;;10.80;9.70;;;;;;;23.45;59.01;100130.27;106043;1274;23024;-72
2022/08/06 01:41:05;;;;;;;11.30;9.70;;;;;;;23.46;59.11;100129.33;106230;1274;25525;-73
2022/08/06 01:43:35;;;;;;;12.30;9.90;;;;;;;23.46;58.99;100129.13;106431;1274;22540;-70
2022/08/06 01:46:23;;;;;;;12.40;9.50;;;;;;;23.44;59.20;100129.27;106357;1274;22543;-70
2022/08/06 01:48:56;;;;;;;10.60;9.60;;;;;;;23.44;59.29;100129.06;105938;1274;22561;-73
2022/08/06 01:51:36;;;;;;;10.30;9.50;;;;;;;23.44;59.26;100133.91;106485;1271;25241;-70
2022/08/06 01:54:24;;;;;;;10.30;9.10;;;;;;;23.45;59.04;100133.34;106384;1271;22615;-68
2022/08/06 01:57:00;;;;;;;12.00;9.10;;;;;;;23.43;59.07;100129.16;106456;1271;24215;-71
2022/08/06 01:59:32;;;;;;;15.10;9.90;;;;;;;23.43;59.22;100132.95;106259;1271;24240;-72
2022/08/06 02:02:03;;;;;;;12.80;9.60;;;;;;;23.43;59.13;100131.87;106319;1268;22518;-66
2022/08/06 02:04:36;;;;;;;12.40;10.00;;;;;;;23.42;59.16;100128.28;106072;1275;22846;-73
2022/08/06 02:07:08;;;;;;;12.10;9.20;;;;;;;23.42;59.01;100125.80;105641;1281;25248;-71
2022/08/06 02:09:57;;;;;;;10.80;9.60;;;;;;;23.42;59.32;100125.25;105688;1280;22906;-69
2022/08/06 02:12:25;;;;;;;10.40;9.20;;;;;;;23.40;59.25;100119.46;105618;1282;22557;-71
2022/08/06 02:15:06;;;;;;;12.20;9.70;;;;;;;23.38;59.13;100121.19;105584;1279;23967;-68
2022/08/06 02:17:38;;;;;;;10.10;9.10;;;;;;;23.36;59.50;100115.59;105807;1280;25726;-70
2022/08/06 02:20:34;;;;;;;12.40;9.40;;;;;;;23.35;59.68;100111.09;105317;1281;22554;-71
2022/08/06 02:23:17;;;;;;;13.10;9.60;;;;;;;23.36;59.55;100113.23;106014;1277;24249;-70
2022/08/06 02:25:47;;;;;;;11.40;9.00;;;;;;;23.35;59.50;100117.23;106111;1271;25226;-71
2022/08/06 02:28:22;;;;;;;10.50;9.30;;;;;;;23.33;59.37;100122.77;106266;1271;23944;-70
2022/08/06 02:30:54;;;;;;;10.70;9.60;;;;;;;23.34;59.72;100130.04;106727;1271;22550;-71
2022/08/06 02:33:22;;;;;;;15.60;9.90;;;;;;;23.32;59.45;100129.48;106421;1271;22748;-72
2022/08/06 02:36:44;;;;;;;10.70;9.50;;;;;;;23.29;59.70;100129.19;106436;1271;22968;-70
2022/08/06 02:39:24;;;;;;;12.40;9.00;;;;;;;23.24;59.75;100134.50;106406;1271;22522;-69
2022/08/06 02:42:19;;;;;;;9.90;8.90;;;;;;;23.24;59.69;100134.99;106389;1271;22950;-70
2022/08/06 02:45:07;;;;;;;9.70;8.70;;;;;;;23.25;59.98;100138.74;106101;1277;25348;-69
2022/08/06 02:47:37;;;;;;;9.60;8.70;;;;;;;23.26;59.72;100144.10;105849;1274;25299;-71
2022/08/06 02:50:35;;;;;;;11.50;9.20;;;;;;;23.24;59.66;100141.45;106068;1274;22611;-70
2022/08/06 02:53:37;;;;;;;10.10;8.90;;;;;;;23.23;59.67;100140.30;105998;1274;25400;-68
2022/08/06 02:56:25;;;;;;;10.60;9.20;;;;;;;23.20;59.86;100140.52;106020;1274;24540;-70
2022/08/06 02:58:57;;;;;;;12.10;9.30;;;;;;;23.16;59.86;100135.77;106066;1274;22541;-69
2022/08/06 03:01:29;;;;;;;11.20;9.20;;;;;;;23.15;59.70;100136.69;106168;1274;23191;-68
2022/08/06 03:04:11;;;;;;;12.40;10.00;;;;;;;23.11;59.63;100138.93;106036;1272;24262;-74
2022/08/06 03:06:43;;;;;;;9.80;7.90;;;;;;;23.07;59.89;100142.42;106318;1271;23927;-68
2022/08/06 03:09:12;;;;;;;10.30;9.30;;;;;;;23.07;59.95;100146.08;106397;1271;25241;-72
2022/08/06 03:11:44;;;;;;;18.00;9.50;;;;;;;23.07;59.76;100147.66;106311;1271;25241;-74
2022/08/06 03:14:17;;;;;;;10.20;9.20;;;;;;;23.07;59.69;100154.30;106246;1271;22568;-66
2022/08/06 03:17:07;;;;;;;24.80;10.30;;;;;;;23.06;59.85;100162.23;106581;1271;22590;-70
2022/08/06 03:19:35;;;;;;;11.90;10.00;;;;;;;23.01;60.05;100158.78;107093;1268;26547;-68
2022/08/06 03:22:25;;;;;;;10.10;9.20;;;;;;;22.97;60.09;100161.23;106862;1271;22532;-69
2022/08/06 03:25:06;;;;;;;12.10;9.30;;;;;;;22.96;60.18;100165.20;106623;1271;22532;-71
2022/08/06 03:27:37;;;;;;;10.50;9.10;;;;;;;22.89;60.14;100167.82;106523;1271;25206;-71
2022/08/06 03:30:12;;;;;;;11.70;9.40;;;;;;;22.83;60.37;100171.64;106402;1271;22802;-71
2022/08/06 03:33:06;;;;;;;10.00;9.00;;;;;;;22.75;60.53;100173.55;105786;1276;25797;-69
2022/08/06 03:35:56;;;;;;;11.40;10.20;;;;;;;22.67;60.64;100175.12;105732;1278;26485;-72
2022/08/06 03:38:28;;;;;;;13.30;8.90;;;;;;;22.58;60.80;100178.02;105911;1277;23967;-69
2022/08/06 03:40:58;;;;;;;14.40;8.80;;;;;;;22.51;60.98;100178.10;105884;1277;24313;-68
2022/08/06 03:43:27;;;;;;;10.70;9.60;;;;;;;22.44;61.12;100186.38;106033;1277;22551;-69
2022/08/06 03:46:20;;;;;;;14.00;10.20;;;;;;;22.36;61.47;100184.36;106245;1274;23072;-72
2022/08/06 03:48:52;;;;;;;10.80;9.30;;;;;;;22.33;61.62;100195.00;105534;1282;24325;-68
2022/08/06 03:51:24;;;;;;;11.50;10.30;;;;;;;22.28;62.07;100198.14;105625;1276;22536;-73
2022/08/06 03:54:15;;;;;;;10.40;9.30;;;;;;;22.27;62.28;100202.33;105979;1277;24322;-70
2022/08/06 03:56:59;;;;;;;12.20;10.10;;;;;;;22.24;62.59;100200.18;105865;1277;25481;-69
2022/08/06 03:59:37;;;;;;;11.60;10.50;;;;;;;22.19;62.84;100196.16;105935;1274;25241;-74
2022/08/06 04:02:29;;;;;;;12.70;10.80;;;;;;;22.16;62.87;100195.66;105893;1277;22539;-76
2022/08/06 04:05:15;;;;;;;15.40;11.20;;;;;;;22.13;63.30;100202.42;105900;1274;22624;-74
2022/08/06 04:07:47;;;;;;;;;;;;;;;22.09;63.60;100201.98;106347;1271;25225;-79
2022/08/06 04:10:24;;;;;;;12.40;10.30;;;;;;;22.02;64.27;100204.91;105858;1277;23191;-79
2022/08/06 04:13:04;;;;;;;11.10;9.90;;;;;;;21.98;64.26;100209.08;105844;1281;24257;-77
2022/08/06 04:15:53;;;;;;;16.00;10.30;;;;;;;21.93;64.84;100212.98;105101;1283;25405;-75
2022/08/06 04:18:30;;;;;;;14.50;10.00;;;;;;;21.99;64.57;100225.53;105229;1284;23138;-71
2022/08/06 04:21:01;;;;;;;13.80;10.00;;;;;;;22.01;64.77;100226.84;105466;1283;24522;-73
2022/08/06 04:23:50;;;;;;;9.70;8.70;;;;;;;22.04;65.02;100224.01;106320;1281;26489;-74
2022/08/06 04:26:23;;;;;;;15.20;9.10;;;;;;;22.03;65.07;100230.30;106508;1281;23412;-76
2022/08/06 04:28:56;;;;;;;11.30;10.20;;;;;;;22.02;65.37;100236.30;105471;1281;22819;-71
2022/08/06 04:31:27;;;;;;;12.40;9.60;;;;;;;21.99;64.92;100245.23;105782;1274;25216;-73
2022/08/06 04:34:24;;;;;;;11.30;9.30;;;;;;;22.00;65.38;100248.73;106017;1274;22516;-70
2022/08/06 04:36:57;;;;;;;11.00;8.60;;;;;;;21.99;65.65;100248.85;106331;1271;24272;-72
2022/08/06 04:39:25;;;;;;;13.50;9.80;;;;;;;21.95;65.99;100250.86;106783;1271;25554;-81
2022/08/06 04:42:13;;;;;;;11.60;8.60;;;;;;;21.97;65.79;100259.75;106194;1271;22529;-71
2022/08/06 04:44:43;;;;;;;8.80;7.50;;;;;;;21.99;65.85;100267.13;106484;1271;25434;-70
2022/08/06 04:47:12;;;;;;;10.90;9.50;;;;;;;21.98;66.30;100272.70;105828;1278;22734;-68
2022/08/06 04:49:45;;;;;;;10.50;8.80;;;;;;;21.93;66.60;100272.29;106349;1276;24224;-72
2022/08/06 04:52:32;;;;;;;9.30;7.20;;;;;;;21.88;66.55;100279.02;106016;1276;22790;-69
2022/08/06 04:55:18;;;;;;;9.40;8.40;;;;;;;21.87;67.09;100285.02;105405;1281;22886;-72
2022/08/06 04:57:52;;;;;;;9.90;7.70;;;;;;;21.89;67.18;100285.27;105223;1281;23111;-72
2022/08/06 05:00:33;;;;;;;8.90;7.60;;;;;;;21.92;67.55;100294.41;104775;1287;24721;-71
2022/08/06 05:03:20;;;;;;;12.80;8.40;;;;;;;21.94;67.79;100298.96;104649;1287;22551;-74
2022/08/06 05:06:22;;;;;;;8.80;6.90;;;;;;;21.92;67.84;100302.88;105344;1280;22583;-72
2022/08/06 05:08:53;;;;;;;6.80;6.20;;;;;;;21.92;67.82;100307.50;105463;1280;25471;-69
2022/08/06 05:11:27;;;;;;;9.60;7.10;;;;;;;21.93;68.15;100305.48;105572;1280;25309;-74
2022/08/06 05:14:01;;;;;;;8.00;6.90;;;;;;;21.95;68.25;100309.66;105951;1274;26475;-72
2022/08/06 05:16:37;;;;;;;9.20;6.40;;;;;;;21.93;68.32;100307.97;105601;1280;25459;-70
2022/08/06 05:19:09;;;;;;;8.60;6.10;;;;;;;21.94;68.84;100306.27;105635;1274;22563;-70
2022/08/06 05:21:51;;;;;;;7.40;5.90;;;;;;;21.97;68.59;100309.69;106066;1274;22678;-72
2022/08/06 05:24:40;;;;;;;7.10;5.00;;;;;;;22.07;68.78;100311.12;105901;1274;22545;-71
2022/08/06 05:27:27;;;;;;;7.80;5.30;;;;;;;22.12;68.44;100313.48;105965;1277;22548;-68
2022/08/06 05:30:15;;;;;;;5.90;4.60;;;;;;;22.23;68.36;100325.41;106103;1277;22568;-75
2022/08/06 05:32:44;;;;;;;5.40;4.90;;;;;;;22.33;68.36;100330.96;106001;1277;22544;-74
2022/08/06 05:35:12;;;;;;;6.50;5.30;;;;;;;22.31;68.94;100341.66;106153;1272;25678;-70
2022/08/06 05:37:44;;;;;;;4.90;4.50;;;;;;;22.24;68.77;100354.08;105511;1271;1258305;-70
2022/08/06 05:40:33;;;;;;;6.80;5.00;;;;;;;22.18;68.96;100369.13;106146;1275;22620;-71
2022/08/06 05:43:21;;;;;;;7.40;5.10;;;;;;;22.12;69.22;100394.56;106028;1275;22687;-70
2022/08/06 05:45:53;;;;;;;5.90;5.20;;;;;;;22.07;69.66;100407.23;105872;1277;22543;-75
2022/08/06 05:48:22;;;;;;;7.60;4.90;;;;;;;22.05;70.29;100423.50;106031;1277;23808;-70
2022/08/06 05:51:06;;;;;;;3.70;3.20;;;;;;;21.97;70.16;100432.52;106028;1275;22561;-69
2022/08/06 05:53:51;;;;;;;5.60;4.50;;;;;;;21.90;71.01;100431.45;106119;1277;22771;-71
2022/08/06 05:56:37;;;;;;;;;;;;;;;21.88;70.77;100440.04;106005;1278;25223;-70
2022/08/06 05:59:28;;;;;;;10.80;5.60;;;;;;;21.84;71.42;100441.32;106213;1272;23302;-70
2022/08/06 06:02:16;;;;;;;9.40;5.20;;;;;;;21.82;71.56;100436.96;106209;1268;24515;-72
2022/08/06 06:04:50;;;;;;;9.10;5.60;;;;;;;21.81;71.57;100441.15;106276;1268;23154;-69
2022/08/06 06:07:37;;;;;;;7.90;6.00;;;;;;;21.83;71.36;100444.42;106252;1271;25526;-71
2022/08/06 06:10:26;;;;;;;8.60;6.60;;;;;;;21.84;72.15;100447.02;106175;1271;25397;-74
2022/08/06 06:12:56;;;;;;;13.50;6.50;;;;;;;21.81;72.26;100451.17;106369;1271;26478;-73
2022/08/06 06:15:24;;;;;;;6.60;5.20;;;;;;;21.76;72.07;100461.77;106460;1268;22560;-74
2022/08/06 06:18:49;;;;;;;6.50;5.60;;;;;;;21.82;72.05;100464.73;106394;1271;22957;-72
2022/08/06 06:21:50;;;;;;;5.70;5.20;;;;;;;21.85;72.47;100467.27;106269;1271;22591;-76
2022/08/06 06:24:25;;;;;;;5.70;4.50;;;;;;;21.87;72.23;100469.30;106678;1268;22540;-72
2022/08/06 06:27:00;;;;;;;5.20;4.80;;;;;;;21.91;72.17;100469.23;106401;1268;22538;-76
2022/08/06 06:29:47;;;;;;;4.60;4.00;;;;;;;21.94;72.06;100477.66;106866;1271;24795;-83
2022/08/06 06:32:55;;;;;;;7.00;4.90;;;;;;;21.89;72.48;100477.62;107427;1271;22543;-79
2022/08/06 06:35:50;;;;;;;7.60;4.90;;;;;;;21.86;72.26;100478.65;107886;1271;25181;-78
2022/08/06 06:38:47;;;;;;;5.90;4.80;;;;;;;21.85;72.45;100486.60;106509;1268;24771;-78
2022/08/06 06:41:21;;;;;;;6.40;5.80;;;;;;;21.82;72.84;100489.98;106367;1271;22637;-81
2022/08/06 06:43:52;;;;;;;7.30;5.90;;;;;;;21.84;72.90;100494.77;106583;1268;22511;-81
2022/08/06 06:46:26;;;;;;;5.30;4.80;;;;;;;21.79;73.02;100502.35;106437;1271;22562;-83
2022/08/06 06:49:35;;;;;;;8.10;4.80;;;;;;;21.67;72.91;100503.88;106734;1271;22595;-83
2022/08/06 06:52:28;;;;;;;6.70;5.90;;;;;;;21.53;73.81;100506.58;106510;1268;22537;-82
2022/08/06 06:55:12;;;;;;;7.80;5.50;;;;;;;21.48;73.93;100510.77;106408;1271;22528;-78
2022/08/06 06:58:01;;;;;;;5.60;4.70;;;;;;;21.40;74.73;100515.69;105910;1277;22577;-76
2022/08/06 07:00:30;;;;;;;5.20;4.40;;;;;;;21.23;75.00;100517.23;105863;1277;22565;-75
2022/08/06 07:03:14;;;;;;;6.30;4.50;;;;;;;21.16;75.51;100513.48;105843;1277;25237;-78
2022/08/06 07:05:46;;;;;;;6.60;5.10;;;;;;;21.17;75.63;100511.33;105368;1284;24202;-76
2022/08/06 07:08:34;;;;;;;7.80;5.30;;;;;;;21.18;75.66;100509.63;105286;1281;22855;-82
2022/08/06 07:11:09;;;;;;;7.20;5.20;;;;;;;21.18;75.95;100513.73;105479;1283;22580;-80
2022/08/06 07:13:38;;;;;;;7.50;4.70;;;;;;;21.23;76.10;100513.66;105713;1281;25241;-78
2022/08/06 07:16:16;;;;;;;5.60;4.00;;;;;;;21.26;76.12;100517.48;105818;1275;22681;-76
2022/08/06 07:19:05;;;;;;;5.60;4.10;;;;;;;21.24;75.96;100515.05;106947;1274;22628;-77
2022/08/06 07:21:40;;;;;;;4.20;3.80;;;;;;;21.25;76.09;100525.58;108009;1274;22732;-77
2022/08/06 07:24:12;;;;;;;4.90;3.90;;;;;;;21.25;76.04;100534.48;107676;1274;22548;-79
2022/08/06 07:27:01;;;;;;;4.20;3.40;;;;;;;21.24;76.09;100545.52;108165;1271;25357;-77
2022/08/06 07:29:30;;;;;;;6.30;3.30;;;;;;;21.25;76.19;100546.86;108079;1271;25356;-74
2022/08/06 07:32:18;;;;;;;4.10;3.60;;;;;;;21.29;76.17;100550.05;107882;1271;22482;-78
2022/08/06 07:35:00;;;;;;;3.90;3.40;;;;;;;21.26;76.08;100545.73;108174;1271;23223;-78
2022/08/06 07:37:44;;;;;;;6.30;3.70;;;;;;;21.30;76.36;100538.58;107384;1271;23340;-76
2022/08/06 07:40:20;;;;;;;3.50;3.20;;;;;;;21.30;76.14;100537.65;107392;1271;22580;-73
2022/08/06 07:42:55;;;;;;;5.40;3.40;;;;;;;21.28;76.08;100543.69;108144;1271;25290;-76
2022/08/06 07:45:24;;;;;;;3.50;2.90;;;;;;;21.28;76.39;100553.02;106845;1272;23191;-77
2022/08/06 07:48:12;;;;;;;4.00;3.60;;;;;;;21.29;76.22;100565.30;106581;1271;25239;-75
2022/08/06 07:50:49;;;;;;;2.50;2.30;;;;;;;21.32;76.10;100571.60;106335;1271;22579;-76
2022/08/06 07:53:19;;;;;;;4.60;3.10;;;;;;;21.26;76.00;100570.11;106418;1271;22564;-79
2022/08/06 07:56:09;;;;;;;2.30;2.10;;;;;;;21.30;76.14;100568.67;106276;1271;25411;-79
2022/08/06 07:58:37;;;;;;;3.40;2.60;;;;;;;21.30;75.94;100569.73;106588;1271;25296;-79
2022/08/06 08:01:12;;;;;;;2.60;2.40;;;;;;;21.34;76.35;100574.73;106403;1271;25455;-76
2022/08/06 08:06:54;;;;;;;2.80;2.50;;;;;;;21.36;76.17;100562.61;107265;1271;22546;-74
2022/08/06 08:09:26;;;;;;;4.90;2.70;;;;;;;21.37;76.00;100561.52;106276;1271;24252;-77
2022/08/06 08:12:15;;;;;;;3.30;2.40;;;;;;;21.37;76.27;100580.50;106245;1271;25225;-78
2022/08/06 08:15:03;;;;;;;3.40;2.20;;;;;;;21.39;76.32;100592.73;106382;1271;23941;-79
2022/08/06 08:17:43;;;;;;;3.60;2.60;;;;;;;21.36;76.37;100599.91;105807;1277;22574;-79
2022/08/06 08:20:13;;;;;;;3.20;2.20;;;;;;;21.35;76.41;100623.96;105276;1284;25432;-73
2022/08/06 08:22:47;;;;;;;2.60;2.40;;;;;;;21.31;76.34;100634.16;105121;1287;26031;-80
2022/08/06 08:25:17;;;;;;;4.40;2.80;;;;;;;21.27;76.54;100640.63;104149;1294;25626;-77
2022/08/06 08:28:10;;;;;;;4.50;2.10;;;;;;;21.28;76.52;100664.77;104165;1296;22539;-72
2022/08/06 08:30:45;;;;;;;2.60;2.00;;;;;;;21.26;76.45;100671.45;104573;1292;23623;-74
2022/08/06 08:33:16;;;;;;;2.50;2.10;;;;;;;21.24;76.33;100663.16;104228;1294;24543;-76
2022/08/06 08:35:49;;;;;;;2.90;2.00;;;;;;;21.19;76.03;100646.39;104593;1288;23354;-75
2022/08/06 08:38:31;;;;;;;1.70;1.60;;;;;;;21.09;76.23;100645.25;104943;1287;25366;-73
2022/08/06 08:41:21;;;;;;;3.60;1.90;;;;;;;21.07;76.13;100650.00;105193;1281;25305;-74
2022/08/06 08:44:09;;;;;;;2.60;1.70;;;;;;;20.99;76.37;100663.61;106545;1274;22685;-76
2022/08/06 08:46:40;;;;;;;2.50;1.70;;;;;;;20.91;76.20;100669.77;106261;1277;22587;-75
2022/08/06 08:49:32;;;;;;;2.90;2.10;;;;;;;20.86;76.57;100686.61;105915;1276;22581;-72
2022/08/06 08:52:01;;;;;;;5.20;2.00;;;;;;;20.86;76.84;100704.52;105988;1277;22912;-76
2022/08/06 08:54:41;;;;;;;1.70;1.40;;;;;;;20.74;76.67;100728.29;105826;1277;22545;-75
2022/08/06 08:57:09;;;;;;;3.80;1.40;;;;;;;20.66;77.04;100750.31;105860;1277;22635;-76
2022/08/06 08:59:56;;;;;;;2.10;1.50;;;;;;;20.61;76.96;100760.56;105861;1277;22702;-75
2022/08/06 09:02:30;;;;;;;1.90;1.60;;;;;;;20.53;77.43;100767.94;105235;1284;22549;-76
2022/08/06 09:04:59;;;;;;;1.70;1.60;;;;;;;20.45;77.55;100773.27;105827;1277;24086;-72
2022/08/06 09:07:28;;;;;;;3.60;1.80;;;;;;;20.37;77.59;100769.86;105885;1277;22551;-75
2022/08/06 09:10:08;;;;;;;2.10;1.70;;;;;;;20.30;77.51;100769.10;106042;1277;24251;-74
2022/08/06 09:12:43;;;;;;;3.40;2.00;;;;;;;20.16;77.37;100765.27;105874;1277;22612;-80
2022/08/06 09:15:16;;;;;;;2.10;1.90;;;;;;;20.11;77.51;100769.40;105968;1277;25907;-73
2022/08/06 09:17:47;;;;;;;2.20;2.00;;;;;;;20.15;77.71;100774.23;106022;1274;22706;-74
2022/08/06 09:20:36;;;;;;;1.90;1.70;;;;;;;20.19;77.56;100767.43;106090;1268;22931;-75
2022/08/06 09:23:12;;;;;;;2.20;2.00;;;;;;;20.23;77.31;100766.17;106478;1268;22545;-78
2022/08/06 09:25:46;;;;;;;2.40;1.80;;;;;;;20.30;77.46;100772.69;106357;1271;22637;-75
2022/08/06 09:28:29;;;;;;;2.40;1.80;;;;;;;20.33;77.14;100776.33;106430;1271;25419;-75
2022/08/06 09:31:07;;;;;;;2.80;2.20;;;;;;;20.37;76.67;100773.79;106514;1271;26564;-76
2022/08/06 09:34:02;;;;;;;4.80;2.20;;;;;;;20.24;75.75;100784.75;106453;1271;23065;-74
2022/08/06 09:36:50;;;;;;;4.20;1.80;;;;;;;20.17;76.14;100788.41;106484;1268;24217;-75
2022/08/06 09:39:41;;;;;;;2.90;1.80;;;;;;;20.15;75.51;100787.27;106168;1274;22545;-73
2022/08/06 09:42:41;;;;;;;2.40;1.60;;;;;;;20.16;75.31;100791.69;106002;1274;22525;-74
2022/08/06 09:45:12;;;;;;;4.20;1.70;;;;;;;20.00;74.35;100803.42;106360;1274;22548;-75
2022/08/06 09:47:47;;;;;;;1.60;1.40;;;;;;;19.90;74.67;100806.17;106036;1274;22550;-74
2022/08/06 09:50:43;;;;;;;1.90;1.70;;;;;;;19.87;75.05;100808.78;106075;1274;25241;-74
2022/08/06 09:53:15;;;;;;;2.60;1.60;;;;;;;19.95;75.29;100812.23;106311;1274;24354;-75
2022/08/06 09:55:49;;;;;;;3.80;2.50;;;;;;;20.08;75.07;100818.48;106472;1274;23306;-84
2022/08/06 09:58:37;;;;;;;2.00;1.80;;;;;;;20.13;74.78;100816.88;106394;1274;25434;-76
2022/08/06 10:01:15;;;;;;;3.10;2.10;;;;;;;20.06;74.10;100821.98;106246;1274;23189;-74
2022/08/06 10:03:52;;;;;;;3.50;1.90;;;;;;;19.93;74.62;100828.53;105652;1280;23188;-82
2022/08/06 10:06:50;;;;;;;4.10;1.60;;;;;;;19.89;74.88;100834.27;105728;1279;24238;-73
2022/08/06 10:09:21;;;;;;;3.50;1.90;;;;;;;19.91;75.11;100831.15;105501;1280;23926;-72
2022/08/06 10:12:26;;;;;;;1.60;1.50;;;;;;;19.81;74.86;100832.08;105619;1280;22546;-74
2022/08/06 10:14:53;;;;;;;2.70;1.90;;;;;;;19.67;75.07;100829.80;105669;1280;22561;-76
2022/08/06 10:17:23;;;;;;;1.70;1.50;;;;;;;19.74;75.41;100825.93;105898;1274;22558;-76
2022/08/06 10:20:12;;;;;;;2.20;1.90;;;;;;;19.82;75.09;100829.88;106186;1274;22537;-74
2022/08/06 10:22:54;;;;;;;2.80;1.70;;;;;;;19.79;74.72;100835.89;106124;1274;25557;-72
2022/08/06 10:25:25;;;;;;;2.20;1.80;;;;;;;19.66;74.65;100839.46;106062;1274;24364;-75
2022/08/06 10:27:56;;;;;;;2.00;1.60;;;;;;;19.44;74.87;100847.13;106312;1268;22537;-75
2022/08/06 10:30:24;;;;;;;2.90;1.40;;;;;;;19.32;75.45;100851.15;106204;1277;22537;-75
2022/08/06 10:33:12;;;;;;;4.50;1.80;;;;;;;19.21;75.36;100854.59;106349;1274;25659;-83
2022/08/06 10:35:54;;;;;;;2.50;1.60;;;;;;;19.17;75.80;100857.95;105815;1279;22560;-79
2022/08/06 10:38:26;;;;;;;2.60;1.80;;;;;;;19.16;75.66;100858.15;106006;1280;22574;-76
2022/08/06 10:41:07;;;;;;;1.80;1.60;;;;;;;19.07;75.61;100860.61;105932;1280;24794;-72
2022/08/06 10:43:55;;;;;;;2.10;1.30;;;;;;;19.06;76.10;100872.06;105845;1280;25593;-72
2022/08/06 10:46:23;;;;;;;3.50;1.20;;;;;;;18.96;76.07;100875.84;105953;1280;23180;-71
2022/08/06 10:48:53;;;;;;;1.20;1.10;;;;;;;18.83;76.19;100878.61;105939;1277;23640;-79
2022/08/06 10:51:42;;;;;;;2.60;1.70;;;;;;;18.70;76.55;100883.34;105972;1276;25386;-74
2022/08/06 10:54:25;;;;;;;1.60;1.50;;;;;;;18.66;76.69;100886.17;106320;1268;25635;-75
2022/08/06 10:56:55;;;;;;;1.80;1.20;;;;;;;18.70;76.82;100890.13;106812;1268;24306;-80
2022/08/06 10:59:23;;;;;;;1.50;1.40;;;;;;;18.81;77.30;100896.19;106629;1268;22557;-79
2022/08/06 11:02:36;;;;;;;1.50;1.30;;;;;;;18.89;76.74;100905.89;106657;1268;23073;-73
2022/08/06 11:05:15;;;;;;;2.80;1.50;;;;;;;18.73;76.59;100902.52;106641;1271;22548;-74
2022/08/06 11:08:38;;;;;;;3.00;1.40;;;;;;;18.73;77.14;100892.33;106409;1271;22527;-84
2022/08/06 11:12:11;;;;;;;1.70;1.40;;;;;;;18.77;76.85;100891.14;106599;1268;22552;-76
2022/08/06 11:14:44;;;;;;;1.40;1.30;;;;;;;18.82;77.18;100901.66;106534;1268;22642;-75
2022/08/06 11:17:12;;;;;;;3.20;1.50;;;;;;;18.79;76.62;100898.17;106645;1268;22526;-80
2022/08/06 11:19:42;;;;;;;2.80;1.40;;;;;;;18.82;77.00;100895.25;105949;1277;24350;-76
2022/08/06 11:22:37;;;;;;;2.70;1.30;;;;;;;18.89;76.72;100889.64;106159;1276;23935;-77
2022/08/06 11:25:09;;;;;;;2.60;1.40;;;;;;;18.93;76.41;100880.73;105917;1277;22614;-74
2022/08/06 11:27:56;;;;;;;3.50;1.70;;;;;;;19.03;76.92;100879.51;106111;1277;22991;-80
2022/08/06 11:30:44;;;;;;;2.10;1.40;;;;;;;19.20;76.96;100878.90;106094;1276;24228;-74
2022/08/06 11:33:19;;;;;;;4.00;1.60;;;;;;;19.27;76.23;100878.30;106204;1277;25508;-73
2022/08/06 11:35:49;;;;;;;3.70;1.40;;;;;;;19.22;75.60;100889.38;105973;1276;22557;-75
2022/08/06 11:38:42;;;;;;;2.60;1.20;;;;;;;19.11;75.63;100894.96;106239;1268;25405;-74
2022/08/06 11:41:18;;;;;;;1.40;1.20;;;;;;;19.08;75.56;100897.89;106349;1271;22585;-71
2022/08/06 11:44:06;;;;;;;2.70;1.40;;;;;;;19.09;75.60;100896.98;106547;1271;22532;-72
2022/08/06 11:46:35;;;;;;;1.40;1.10;;;;;;;19.08;75.20;100902.90;106427;1271;25239;-74
2022/08/06 11:49:23;;;;;;;1.50;1.00;;;;;;;19.01;75.05;100914.38;106496;1271;23518;-74
2022/08/06 11:51:57;;;;;;;1.80;1.10;;;;;;;19.05;75.39;100918.88;106577;1274;25444;-73
2022/08/06 11:54:56;;;;;;;3.10;1.30;;;;;;;19.08;75.14;100915.02;105985;1274;25303;-74
2022/08/06 11:57:24;;;;;;;3.50;1.20;;;;;;;18.98;74.54;100911.08;106135;1274;24201;-73
2022/08/06 12:00:15;;;;;;;3.80;1.20;;;;;;;18.90;74.91;100920.82;106655;1274;22635;-72
2022/08/06 12:02:49;;;;;;;3.80;1.50;;;;;;;18.93;75.10;100916.78;105969;1274;25241;-70
2022/08/06 12:05:21;;;;;;;1.20;0.90;;;;;;;18.90;74.81;100917.07;106111;1273;22545;-70
2022/08/06 12:08:18;;;;;;;3.10;1.30;;;;;;;18.86;74.90;100920.95;106215;1274;22626;-74
2022/08/06 12:11:28;;;;;;;1.90;1.30;;;;;;;18.93;75.33;100925.16;106073;1274;22569;-71
2022/08/06 12:14:03;;;;;;;1.80;1.30;;;;;;;18.86;75.04;100930.25;106228;1274;23949;-71
2022/08/06 12:16:50;;;;;;;3.40;1.50;;;;;;;18.89;75.78;100925.52;106229;1271;25470;-73